createdAt,value
2018-06-05T00:00:12.062Z,13.20
2018-06-05T00:02:39.831Z,15.13
2018-06-05T00:05:07.665Z,14.50
2018-06-05T00:07:35.367Z,14.87
2018-06-05T00:10:03.441Z,14.30
2018-06-05T00:12:31.183Z,13.00
2018-06-05T00:14:58.869Z,12.93
2018-06-05T00:17:26.740Z,14.50
2018-06-05T00:19:54.598Z,13.13
2018-06-05T00:22:22.422Z,14.47
2018-06-05T00:24:50.170Z,15.07
2018-06-05T00:27:17.943Z,13.60
2018-06-05T00:29:45.835Z,14.17
2018-06-05T00:32:13.701Z,14.63
2018-06-05T00:34:41.506Z,15.57
2018-06-05T00:37:09.266Z,15.07
2018-06-05T00:39:37.107Z,14.20
2018-06-05T00:42:04.977Z,14.97
2018-06-05T00:44:32.607Z,15.77
2018-06-05T00:47:00.438Z,15.17
2018-06-05T00:49:28.237Z,14.60
2018-06-05T00:52:07.280Z,15.63
2018-06-05T00:54:35.195Z,15.40
2018-06-05T00:57:02.979Z,16.20
2018-06-05T00:59:30.648Z,16.37
2018-06-05T01:01:58.409Z,17.13
2018-06-05T01:04:26.282Z,16.07
2018-06-05T01:06:54.081Z,16.13
2018-06-05T01:09:21.953Z,17.20
2018-06-05T01:11:49.751Z,14.20
2018-06-05T01:14:17.585Z,14.33
2018-06-05T01:16:45.407Z,14.83
2018-06-05T01:19:13.137Z,13.73
2018-06-05T01:21:41.009Z,15.23
2018-06-05T01:24:08.818Z,15.03
2018-06-05T01:26:36.718Z,14.43
2018-06-05T01:29:04.525Z,15.57
2018-06-05T01:31:32.305Z,16.70
2018-06-05T01:34:00.241Z,15.67
2018-06-05T01:36:27.967Z,17.43
2018-06-05T01:38:55.865Z,14.90
2018-06-05T01:41:23.552Z,14.77
2018-06-05T01:43:51.278Z,15.30
2018-06-05T01:46:19.160Z,15.53
2018-06-05T01:48:47.021Z,14.97
2018-06-05T01:51:14.841Z,15.03
2018-06-05T01:53:42.608Z,16.20
2018-06-05T01:56:10.488Z,15.43
2018-06-05T01:58:38.348Z,17.43
2018-06-05T02:01:06.251Z,16.90
2018-06-05T02:03:34.172Z,16.50
2018-06-05T02:06:02.037Z,16.33
2018-06-05T02:08:29.864Z,14.90
2018-06-05T02:10:57.796Z,17.87
2018-06-05T02:13:25.721Z,17.73
2018-06-05T02:15:54.701Z,14.50
2018-06-05T02:18:22.596Z,15.73
2018-06-05T02:25:52.235Z,14.67
2018-06-05T02:28:20.102Z,15.77
2018-06-05T02:30:48.178Z,18.17
2018-06-05T02:33:16.176Z,17.30
2018-06-05T02:35:44.075Z,16.13
2018-06-05T02:38:11.906Z,14.53
2018-06-05T02:40:39.640Z,16.07
2018-06-05T02:43:07.439Z,15.97
2018-06-05T02:45:35.162Z,15.50
2018-06-05T02:48:02.971Z,16.10
2018-06-05T02:50:30.783Z,18.20
2018-06-05T02:52:58.607Z,21.17
2018-06-05T02:55:26.380Z,23.83
2018-06-05T02:57:54.172Z,22.33
2018-06-05T03:00:21.968Z,22.03
2018-06-05T03:02:51.979Z,21.80
2018-06-05T03:05:19.738Z,23.30
2018-06-05T03:07:52.046Z,22.57
2018-06-05T03:10:20.372Z,17.80
2018-06-05T03:12:48.172Z,16.40
2018-06-05T03:15:16.002Z,18.70
2018-06-05T03:17:43.797Z,15.87
2018-06-05T03:20:11.623Z,15.27
2018-06-05T03:22:39.321Z,15.50
2018-06-05T03:25:07.024Z,17.00
2018-06-05T03:27:34.823Z,15.60
2018-06-05T03:30:02.682Z,15.67
2018-06-05T03:32:30.423Z,18.17
2018-06-05T03:34:58.562Z,15.37
2018-06-05T03:37:26.374Z,15.67
2018-06-05T03:39:54.716Z,19.87
2018-06-05T03:42:22.641Z,17.97
2018-06-05T03:44:50.513Z,15.53
2018-06-05T03:47:18.298Z,16.40
2018-06-05T03:49:46.173Z,18.40
2018-06-05T03:52:13.888Z,21.67
2018-06-05T03:54:41.949Z,20.17
2018-06-05T03:57:09.925Z,31.03
2018-06-05T03:59:37.817Z,37.33
2018-06-05T04:02:05.646Z,44.80
2018-06-05T04:04:33.428Z,41.33
2018-06-05T04:07:01.289Z,47.57
2018-06-05T04:09:29.099Z,44.63
2018-06-05T04:11:56.847Z,47.03
2018-06-05T04:14:24.563Z,50.90
2018-06-05T04:16:52.326Z,53.40
2018-06-05T04:19:20.077Z,48.87
2018-06-05T04:21:47.883Z,51.50
2018-06-05T04:24:15.730Z,55.60
2018-06-05T04:26:43.667Z,47.57
2018-06-05T04:29:11.434Z,50.17
2018-06-05T04:31:39.235Z,52.40
2018-06-05T04:34:07.106Z,48.60
2018-06-05T04:36:34.976Z,52.87
2018-06-05T04:39:02.993Z,54.07
2018-06-05T04:41:30.830Z,55.83
2018-06-05T04:43:58.615Z,49.93
2018-06-05T04:46:26.311Z,59.40
2018-06-05T04:48:53.980Z,50.03
2018-06-05T04:51:21.784Z,48.50
2018-06-05T04:53:49.590Z,46.27
2018-06-05T04:56:17.452Z,51.30
2018-06-05T04:58:45.228Z,51.20
2018-06-05T05:01:12.962Z,50.33
2018-06-05T05:03:40.635Z,50.83
2018-06-05T05:06:08.409Z,53.13
2018-06-05T05:08:36.243Z,57.97
2018-06-05T05:11:03.869Z,56.27
2018-06-05T05:13:31.860Z,57.13
2018-06-05T05:16:00.104Z,59.40
2018-06-05T05:18:27.955Z,59.73
2018-06-05T05:20:55.732Z,56.87
2018-06-05T05:23:23.648Z,55.33
2018-06-05T05:25:51.884Z,57.20
2018-06-05T05:28:19.738Z,59.27
2018-06-05T05:30:47.635Z,60.90
2018-06-05T05:33:15.382Z,61.70
2018-06-05T05:35:43.031Z,63.00
2018-06-05T05:38:10.794Z,66.57
2018-06-05T05:40:38.585Z,70.00
2018-06-05T05:43:06.352Z,75.73
2018-06-05T05:45:34.162Z,73.43
2018-06-05T05:48:01.924Z,71.00
2018-06-05T05:50:29.821Z,73.83
2018-06-05T05:52:57.533Z,80.20
2018-06-05T05:55:25.298Z,84.33
2018-06-05T05:57:53.099Z,84.13
2018-06-05T06:00:21.025Z,84.97
2018-06-05T06:02:48.823Z,88.20
2018-06-05T06:05:16.639Z,86.23
2018-06-05T06:07:44.539Z,88.57
2018-06-05T06:10:12.312Z,90.90
2018-06-05T06:12:39.982Z,94.03
2018-06-05T06:15:07.778Z,89.47
2018-06-05T06:17:35.550Z,89.17
2018-06-05T06:20:03.342Z,91.77
2018-06-05T06:22:31.163Z,99.03
2018-06-05T06:24:59.018Z,79.30
2018-06-05T06:27:27.960Z,93.20
2018-06-05T06:29:55.799Z,96.57
2018-06-05T06:32:23.713Z,83.13
2018-06-05T06:34:51.948Z,85.03
2018-06-05T06:37:19.567Z,76.77
2018-06-05T06:39:47.325Z,81.13
2018-06-05T06:42:15.057Z,82.47
2018-06-05T06:44:42.715Z,81.37
2018-06-05T06:47:10.583Z,78.30
2018-06-05T06:49:38.370Z,77.30
2018-06-05T06:52:06.179Z,71.37
2018-06-05T06:54:34.021Z,70.17
2018-06-05T06:57:01.931Z,77.13
2018-06-05T06:59:29.901Z,75.90
2018-06-05T07:01:57.646Z,73.83
2018-06-05T07:04:25.453Z,74.20
2018-06-05T07:06:53.315Z,76.83
2018-06-05T07:09:21.042Z,76.63
2018-06-05T07:11:48.910Z,75.03
2018-06-05T07:14:16.633Z,72.60
2018-06-05T07:16:44.427Z,66.83
2018-06-05T07:19:12.184Z,68.53
2018-06-05T07:21:39.988Z,75.63
2018-06-05T07:24:07.879Z,70.43
2018-06-05T07:26:35.778Z,62.87
2018-06-05T07:29:03.742Z,69.00
2018-06-05T07:31:31.483Z,67.47
2018-06-05T07:33:59.192Z,63.57
2018-06-05T07:36:26.929Z,57.07
2018-06-05T07:38:54.686Z,55.90
2018-06-05T07:41:22.481Z,68.63
2018-06-05T07:43:50.179Z,64.77
2018-06-05T07:46:18.011Z,55.13
2018-06-05T07:48:46.014Z,60.67
2018-06-05T07:51:13.759Z,58.23
2018-06-05T07:53:41.451Z,68.87
2018-06-05T07:56:09.397Z,68.37
2018-06-05T07:58:37.101Z,66.47
2018-06-05T08:01:04.816Z,65.13
2018-06-05T08:03:32.682Z,66.83
2018-06-05T08:06:00.343Z,64.70
2018-06-05T08:08:28.047Z,63.27
2018-06-05T08:10:55.839Z,69.13
2018-06-05T08:13:23.865Z,64.07
2018-06-05T08:15:51.717Z,64.67
2018-06-05T08:18:19.484Z,67.93
2018-06-05T08:20:47.207Z,70.57
2018-06-05T08:23:15.048Z,67.53
2018-06-05T08:25:42.736Z,54.97
2018-06-05T08:28:10.402Z,53.43
2018-06-05T08:30:38.132Z,67.43
2018-06-05T08:33:06.008Z,68.10
2018-06-05T08:35:33.710Z,61.93
2018-06-05T08:38:01.477Z,62.37
2018-06-05T08:40:29.268Z,69.50
2018-06-05T08:42:57.186Z,63.37
2018-06-05T08:45:24.907Z,64.87
2018-06-05T08:47:52.726Z,61.43
2018-06-05T08:50:20.643Z,61.37
2018-06-05T08:52:48.467Z,59.87
2018-06-05T08:55:16.142Z,54.83
2018-06-05T08:57:43.941Z,59.40
2018-06-05T09:00:11.585Z,57.90
2018-06-05T09:02:39.836Z,56.37
2018-06-05T09:05:07.709Z,57.27
2018-06-05T09:07:35.429Z,54.30
2018-06-05T09:10:03.352Z,50.83
2018-06-05T09:12:31.156Z,53.30
2018-06-05T09:14:59.069Z,52.53
2018-06-05T09:17:26.848Z,45.67
2018-06-05T09:19:54.761Z,50.33
2018-06-05T09:22:22.722Z,49.07
2018-06-05T09:24:50.548Z,42.50
2018-06-05T09:27:18.374Z,41.73
2018-06-05T09:29:45.965Z,46.17
2018-06-05T09:32:13.777Z,45.97
2018-06-05T09:34:41.596Z,50.80
2018-06-05T09:37:09.770Z,39.43
2018-06-05T09:39:37.822Z,39.67
2018-06-05T09:42:05.553Z,42.30
2018-06-05T09:44:33.436Z,45.80
2018-06-05T09:47:01.194Z,40.60
2018-06-05T09:49:29.006Z,43.37
2018-06-05T09:51:56.876Z,40.80
2018-06-05T09:54:24.817Z,45.23
2018-06-05T09:56:52.611Z,39.67
2018-06-05T09:59:20.439Z,45.47
2018-06-05T10:01:48.225Z,43.80
2018-06-05T10:04:16.071Z,47.10
2018-06-05T10:06:44.004Z,43.27
2018-06-05T10:09:11.837Z,44.73
2018-06-05T10:11:39.620Z,42.30
2018-06-05T10:14:07.452Z,34.53
2018-06-05T10:16:35.187Z,31.53
2018-06-05T10:19:03.136Z,34.57
2018-06-05T10:21:30.952Z,38.13
2018-06-05T10:23:58.770Z,38.47
2018-06-05T10:26:26.570Z,34.57
2018-06-05T10:28:54.445Z,36.37
2018-06-05T10:31:22.519Z,35.03
2018-06-05T10:33:50.729Z,28.37
2018-06-05T10:36:18.772Z,30.43
2018-06-05T10:38:46.891Z,33.40
2018-06-05T10:41:14.843Z,31.87
2018-06-05T10:43:42.719Z,31.20
2018-06-05T10:46:10.783Z,34.53
2018-06-05T10:48:38.753Z,34.13
2018-06-05T10:51:06.473Z,33.50
2018-06-05T10:53:34.284Z,35.60
2018-06-05T10:56:02.230Z,37.20
2018-06-05T10:58:29.953Z,40.23
2018-06-05T11:00:57.654Z,36.50
2018-06-05T11:03:25.476Z,38.53
2018-06-05T11:05:53.525Z,35.60
2018-06-05T11:08:22.187Z,37.23
2018-06-05T11:10:49.959Z,30.40
2018-06-05T11:13:17.751Z,31.40
2018-06-05T11:15:45.556Z,36.63
2018-06-05T11:18:13.374Z,34.67
2018-06-05T11:20:41.169Z,34.30
2018-06-05T11:23:09.031Z,33.60
2018-06-05T11:25:36.865Z,33.73
2018-06-05T11:28:04.719Z,35.90
2018-06-05T11:30:32.570Z,34.83
2018-06-05T11:33:00.388Z,33.70
2018-06-05T11:35:28.272Z,34.43
2018-06-05T11:37:56.051Z,32.43
2018-06-05T11:40:24.140Z,32.90
2018-06-05T11:42:52.537Z,33.37
2018-06-05T11:45:21.078Z,33.83
2018-06-05T11:47:48.988Z,41.67
2018-06-05T11:50:16.750Z,41.10
2018-06-05T11:52:44.548Z,38.23
2018-06-05T11:55:12.398Z,45.30
2018-06-05T11:57:40.250Z,49.47
2018-06-05T12:00:08.481Z,45.03
2018-06-05T12:02:36.427Z,41.87
2018-06-05T12:05:04.184Z,48.73
2018-06-05T12:07:31.966Z,49.67
2018-06-05T12:09:59.807Z,48.40
2018-06-05T12:12:27.616Z,46.33
2018-06-05T12:14:55.423Z,49.83
2018-06-05T12:17:23.644Z,47.53
2018-06-05T12:19:52.125Z,44.70
2018-06-05T12:22:19.988Z,50.90
2018-06-05T12:24:47.743Z,46.67
2018-06-05T12:27:15.670Z,46.03
2018-06-05T12:29:44.058Z,47.63
2018-06-05T12:32:11.905Z,51.07
2018-06-05T12:34:39.699Z,49.67
2018-06-05T12:37:07.497Z,49.60
2018-06-05T12:39:35.326Z,48.90
2018-06-05T12:42:03.089Z,45.23
2018-06-05T12:44:30.882Z,45.90
2018-06-05T12:46:58.660Z,43.67
2018-06-05T12:49:26.477Z,48.97
2018-06-05T12:51:55.449Z,47.20
2018-06-05T12:54:23.769Z,43.80
2018-06-05T12:56:52.371Z,48.37
2018-06-05T12:59:20.192Z,45.77
2018-06-05T13:01:51.860Z,45.47
2018-06-05T13:04:19.685Z,47.30
2018-06-05T13:06:47.594Z,46.00
2018-06-05T13:09:15.503Z,46.83
2018-06-05T13:11:43.436Z,47.23
2018-06-05T13:14:11.240Z,50.23
2018-06-05T13:16:39.087Z,50.43
2018-06-05T13:19:06.964Z,44.93
2018-06-05T13:21:34.731Z,43.47
2018-06-05T13:24:02.520Z,44.47
2018-06-05T13:26:31.678Z,44.53
2018-06-05T13:29:00.540Z,40.53
2018-06-05T13:31:28.354Z,39.27
2018-06-05T13:33:56.346Z,35.63
2018-06-05T13:36:24.138Z,32.93
2018-06-05T13:38:51.937Z,33.37
2018-06-05T13:41:19.733Z,35.73
2018-06-05T13:43:47.564Z,35.13
2018-06-05T13:46:15.324Z,36.27
2018-06-05T13:48:43.217Z,33.23
2018-06-05T13:51:11.009Z,37.40
2018-06-05T13:53:38.779Z,38.17
2018-06-05T13:56:06.669Z,37.23
2018-06-05T13:58:34.520Z,37.47
2018-06-05T14:01:02.232Z,35.13
2018-06-05T14:03:33.638Z,36.30
2018-06-05T14:06:01.483Z,34.63
2018-06-05T14:08:29.291Z,29.60
2018-06-05T14:10:57.177Z,32.13
2018-06-05T14:13:25.120Z,30.33
2018-06-05T14:15:53.219Z,27.37
2018-06-05T14:18:21.114Z,27.33
2018-06-05T14:20:48.944Z,27.27
2018-06-05T14:23:17.104Z,30.20
2018-06-05T14:25:44.935Z,27.77
2018-06-05T14:28:12.809Z,32.03
2018-06-05T14:30:40.553Z,26.00
2018-06-05T14:33:08.318Z,30.43
2018-06-05T14:35:37.786Z,26.03
2018-06-05T14:38:05.451Z,24.07
2018-06-05T14:40:33.246Z,23.73
2018-06-05T14:43:01.026Z,22.57
2018-06-05T14:45:28.833Z,24.20
2018-06-05T14:47:56.781Z,24.07
2018-06-05T14:50:24.769Z,24.03
2018-06-05T14:52:52.875Z,22.70
2018-06-05T14:55:20.745Z,22.97
2018-06-05T14:57:48.435Z,25.90
2018-06-05T15:00:16.080Z,27.53
2018-06-05T15:02:43.943Z,28.90
2018-06-05T15:05:11.828Z,27.13
2018-06-05T15:07:39.468Z,29.53
2018-06-05T15:10:07.341Z,26.30
2018-06-05T15:12:35.048Z,26.53
2018-06-05T15:15:02.951Z,24.77
2018-06-05T15:17:30.736Z,32.67
2018-06-05T15:19:58.659Z,34.33
2018-06-05T15:22:26.565Z,33.77
2018-06-05T15:24:54.471Z,28.70
2018-06-05T15:27:22.115Z,31.33
2018-06-05T15:29:50.006Z,31.33
2018-06-05T15:32:17.742Z,29.80
2018-06-05T15:34:45.562Z,32.60
2018-06-05T15:37:13.453Z,32.57
2018-06-05T15:39:41.223Z,32.23
2018-06-05T15:42:09.036Z,29.30
2018-06-05T15:44:36.878Z,29.53
2018-06-05T15:47:04.539Z,31.20
2018-06-05T15:49:32.329Z,31.80
2018-06-05T15:52:00.254Z,31.27
2018-06-05T15:54:28.018Z,34.53
2018-06-05T15:56:55.832Z,31.33
2018-06-05T15:59:23.649Z,32.60
2018-06-05T16:01:51.485Z,30.07
2018-06-05T16:04:19.357Z,36.83
2018-06-05T16:06:47.198Z,29.67
2018-06-05T16:09:15.018Z,35.83
2018-06-05T16:11:42.741Z,39.10
2018-06-05T16:14:10.620Z,35.57
2018-06-05T16:16:38.443Z,36.93
2018-06-05T16:19:06.246Z,34.67
2018-06-05T16:21:34.075Z,34.27
2018-06-05T16:24:01.861Z,36.37
2018-06-05T16:26:30.508Z,36.07
2018-06-05T16:28:58.382Z,34.23
2018-06-05T16:31:26.197Z,34.43
2018-06-05T16:33:53.958Z,32.23
2018-06-05T16:36:21.836Z,31.97
2018-06-05T16:38:50.266Z,31.67
2018-06-05T16:41:18.051Z,30.97
2018-06-05T16:43:46.473Z,33.47
2018-06-05T16:46:14.311Z,31.20
2018-06-05T16:48:42.991Z,31.73
2018-06-05T16:51:11.176Z,34.87
2018-06-05T16:53:39.135Z,32.53
2018-06-05T16:56:06.892Z,29.53
2018-06-05T16:58:34.883Z,31.90
2018-06-05T17:01:02.540Z,29.57
2018-06-05T17:03:30.389Z,27.27
2018-06-05T17:05:58.138Z,28.67
2018-06-05T17:08:25.980Z,28.57
2018-06-05T17:10:53.696Z,29.57
2018-06-05T17:13:21.731Z,28.43
2018-06-05T17:15:49.496Z,27.77
2018-06-05T17:18:17.253Z,28.27
2018-06-05T17:20:45.070Z,31.50
2018-06-05T17:23:13.022Z,31.80
2018-06-05T17:25:40.930Z,29.43
2018-06-05T17:28:08.786Z,29.13
2018-06-05T17:30:36.499Z,28.00
2018-06-05T17:33:04.578Z,26.60
2018-06-05T17:35:32.318Z,25.37
2018-06-05T17:38:00.238Z,28.60
2018-06-05T17:40:28.038Z,28.53
2018-06-05T17:42:56.479Z,30.30
2018-06-05T17:45:24.390Z,29.57
2018-06-05T17:47:52.525Z,31.00
2018-06-05T17:50:21.112Z,33.20
2018-06-05T17:52:48.937Z,32.57
2018-06-05T17:55:16.728Z,31.00
2018-06-05T17:57:44.566Z,33.63
2018-06-05T18:00:12.611Z,32.00
2018-06-05T18:02:40.476Z,31.90
2018-06-05T18:05:08.369Z,32.43
2018-06-05T18:07:37.292Z,29.67
2018-06-05T18:10:05.340Z,31.93
2018-06-05T18:12:33.160Z,33.70
2018-06-05T18:15:01.238Z,31.57
2018-06-05T18:17:29.465Z,29.87
2018-06-05T18:20:01.607Z,31.17
2018-06-05T18:22:29.454Z,34.23
2018-06-05T18:24:57.597Z,33.80
2018-06-05T18:27:25.580Z,33.43
2018-06-05T18:29:53.767Z,35.63
2018-06-05T18:32:22.276Z,35.57
2018-06-05T18:34:50.381Z,33.90
2018-06-05T18:37:22.324Z,35.20
2018-06-05T18:39:50.224Z,34.03
2018-06-05T18:42:18.098Z,34.63
2018-06-05T18:44:46.296Z,35.63
2018-06-05T18:47:14.201Z,34.77
2018-06-05T18:49:42.719Z,34.80
2018-06-05T18:52:11.562Z,36.00
2018-06-05T18:54:40.355Z,35.27
2018-06-05T18:57:08.204Z,35.97
2018-06-05T18:59:36.033Z,37.20
2018-06-05T19:02:03.843Z,37.00
2018-06-05T19:04:31.722Z,37.83
2018-06-05T19:06:59.613Z,37.97
2018-06-05T19:09:27.564Z,37.83
2018-06-05T19:11:55.573Z,38.60
2018-06-05T19:14:23.732Z,38.80
2018-06-05T19:16:51.898Z,37.90
2018-06-05T19:19:19.920Z,38.93
2018-06-05T19:21:48.818Z,40.50
2018-06-05T19:24:16.919Z,37.97
2018-06-05T19:26:45.086Z,40.97
2018-06-05T19:29:12.989Z,39.40
2018-06-05T19:31:40.774Z,37.27
2018-06-05T19:34:08.631Z,39.43
2018-06-05T19:36:36.958Z,37.00
2018-06-05T19:39:06.796Z,38.47
2018-06-05T19:41:36.597Z,40.30
2018-06-05T19:44:04.471Z,38.03
2018-06-05T19:46:32.386Z,35.17
2018-06-05T19:49:00.345Z,39.63
2018-06-05T19:51:28.195Z,38.67
2018-06-05T19:53:56.059Z,39.03
2018-06-05T19:56:24.009Z,39.73
2018-06-05T19:58:52.593Z,39.30
2018-06-05T20:01:20.740Z,40.80
2018-06-05T20:03:48.848Z,40.23
2018-06-05T20:06:16.880Z,38.30
2018-06-05T20:08:44.940Z,39.43
2018-06-05T20:11:13.124Z,35.57
2018-06-05T20:13:41.549Z,39.07
2018-06-05T20:16:15.830Z,39.67
2018-06-05T20:18:44.035Z,39.37
2018-06-05T20:21:12.204Z,36.87
2018-06-05T20:23:47.167Z,37.80
2018-06-05T20:26:15.147Z,36.57
2018-06-05T20:28:47.592Z,38.47
2018-06-05T20:31:15.579Z,38.83
2018-06-05T20:33:43.504Z,39.00
2018-06-05T20:36:11.377Z,39.53
2018-06-05T20:38:39.343Z,36.67
2018-06-05T20:41:07.475Z,42.57
2018-06-05T20:43:35.605Z,43.77
2018-06-05T20:46:03.778Z,39.63
2018-06-05T20:48:32.734Z,43.03
2018-06-05T20:51:00.637Z,40.53
2018-06-05T20:53:29.130Z,42.00
2018-06-05T20:55:59.718Z,41.53
2018-06-05T20:58:27.644Z,42.83
2018-06-05T21:00:55.854Z,43.47
2018-06-05T21:03:23.847Z,39.27
2018-06-05T21:05:51.907Z,38.73
2018-06-05T21:08:19.932Z,40.13
2018-06-05T21:10:47.855Z,39.50
2018-06-05T21:13:15.917Z,38.97
2018-06-05T21:15:43.999Z,39.47
2018-06-05T21:18:12.003Z,36.50
2018-06-05T21:20:40.008Z,38.50
2018-06-05T21:23:08.037Z,41.40
2018-06-05T21:25:36.074Z,39.57
2018-06-05T21:28:04.022Z,40.90
2018-06-05T21:30:31.950Z,41.23
2018-06-05T21:32:59.863Z,41.93
2018-06-05T21:35:27.682Z,40.87
2018-06-05T21:37:55.758Z,36.77
2018-06-05T21:40:23.857Z,38.83
2018-06-05T21:42:56.015Z,40.53
2018-06-05T21:45:24.241Z,39.80
2018-06-05T21:47:52.258Z,42.30
2018-06-05T21:50:20.267Z,42.83
2018-06-05T21:52:49.070Z,43.00
2018-06-05T21:55:17.258Z,40.20
2018-06-05T21:57:45.555Z,39.87
2018-06-05T22:00:13.668Z,45.73
2018-06-05T22:02:41.571Z,45.13
2018-06-05T22:05:09.423Z,47.57
2018-06-05T22:07:37.368Z,44.33
2018-06-05T22:10:05.254Z,45.10
2018-06-05T22:12:33.273Z,39.73
2018-06-05T22:15:01.232Z,46.43
2018-06-05T22:17:29.271Z,41.60
2018-06-05T22:19:57.461Z,43.17
2018-06-05T22:22:25.435Z,41.83
2018-06-05T22:24:53.485Z,45.57
2018-06-05T22:27:21.497Z,41.30
2018-06-05T22:29:49.797Z,42.63
2018-06-05T22:32:17.876Z,38.33
2018-06-05T22:34:45.802Z,42.73
2018-06-05T22:37:13.880Z,45.77
2018-06-05T22:39:41.844Z,40.90
2018-06-05T22:42:09.910Z,43.67
2018-06-05T22:44:37.823Z,43.00
2018-06-05T22:47:05.806Z,43.30
2018-06-05T22:49:33.601Z,42.80
2018-06-05T22:52:01.710Z,42.97
2018-06-05T22:54:29.655Z,41.37
2018-06-05T22:56:57.654Z,39.63
2018-06-05T22:59:25.859Z,36.07
2018-06-05T23:01:55.120Z,38.57
2018-06-05T23:04:23.082Z,39.70
2018-06-05T23:06:51.257Z,38.77
2018-06-05T23:09:19.251Z,41.17
2018-06-05T23:11:47.320Z,39.87
2018-06-05T23:14:15.582Z,47.03
2018-06-05T23:16:43.512Z,39.83
2018-06-05T23:19:11.499Z,42.50
2018-06-05T23:21:39.590Z,41.97
2018-06-05T23:24:07.413Z,44.53
2018-06-05T23:26:35.200Z,44.83
2018-06-05T23:29:02.990Z,44.93
2018-06-05T23:31:30.738Z,45.03
2018-06-05T23:33:58.606Z,52.10
2018-06-05T23:36:26.453Z,45.87
2018-06-05T23:38:54.330Z,51.03
2018-06-05T23:41:22.178Z,47.60
2018-06-05T23:43:50.266Z,47.37
2018-06-05T23:46:18.411Z,45.80
2018-06-05T23:48:46.094Z,41.93
2018-06-05T23:51:13.806Z,43.20
2018-06-05T23:53:41.624Z,45.60
2018-06-05T23:56:09.581Z,44.50
2018-06-05T23:58:37.450Z,44.87
